Time;durP1;ratioP1;P1;durP2;ratioP2;P2;SDS_P1;SDS_P2;PMS_P1;PMS_P2;Temp;Humidity;BMP_temperature;BMP_pressure;BME280_temperature;BME280_humidity;BME280_pressure;Samples;Min_cycle;Max_cycle;Signal;HPM_P1;HPM_P2
2021/04/23 00:00:12;;;;;;;;;;;;;;;0.32;100.00;100181.63;5053447;28;19963;-80
2021/04/23 00:02:39;;;;;;;;;;;;;;;0.39;100.00;100182.72;5053398;28;19933;-80
2021/04/23 00:05:06;;;;;;;;;;;;;;;0.44;100.00;100184.50;5085543;28;19932;-80
2021/04/23 00:07:33;;;;;;;;;;;;;;;0.45;100.00;100186.91;5053306;28;19924;-80
2021/04/23 00:10:00;;;;;;;;;;;;;;;0.33;100.00;100189.53;5068955;28;20054;-80
2021/04/23 00:12:27;;;;;;;;;;;;;;;0.26;100.00;100180.97;5053130;28;19929;-80
2021/04/23 00:14:53;;;;;;;;;;;;;;;0.17;100.00;100179.41;5085270;28;19925;-80
2021/04/23 00:17:20;;;;;;;;;;;;;;;0.15;100.00;100185.25;5052799;28;19928;-80
2021/04/23 00:19:46;;;;;;;;;;;;;;;0.11;100.00;100198.00;5053481;28;19946;-80
2021/04/23 00:22:13;;;;;;;;;;;;;;;0.16;100.00;100184.09;5051908;28;19948;-80
2021/04/23 00:24:40;;;;;;;;;;;;;;;0.19;100.00;100188.94;5052054;28;19936;-80
2021/04/23 00:27:07;;;;;;;;;;;;;;;0.03;100.00;100188.66;5053027;28;19925;-80
2021/04/23 00:29:35;;;;;;;;;;;;;;;-0.04;100.00;100185.59;5053080;28;19932;-80
2021/04/23 00:34:48;;;;;;;;;;;;;;;-0.17;100.00;100191.28;5053047;28;19931;-80
2021/04/23 00:37:14;;;;;;;;;;;;;;;-0.07;100.00;100186.25;5068573;28;20298;-80
2021/04/23 00:39:41;;;;;;;;;;;;;;;-0.07;100.00;100185.44;5085062;28;20014;-79
2021/04/23 00:42:08;;;;;;;;;;;;;;;-0.21;100.00;100190.31;5085158;28;20086;-80
2021/04/23 00:44:35;;;;;;;;;;;;;;;-0.27;100.00;100181.44;5052928;28;20350;-80
2021/04/23 00:47:01;;;;;;;;;;;;;;;-0.29;100.00;100189.19;5052921;28;20335;-80
2021/04/23 00:49:28;;;;;;;;;;;;;;;-0.36;100.00;100185.31;5053089;28;20030;-80
2021/04/23 00:52:00;;;;;;;;;;;;;;;-0.37;100.00;100184.53;5051744;28;19933;-80
2021/04/23 00:54:27;;;;;;;;;;;;;;;-0.25;100.00;100181.94;5052979;28;19925;-80
2021/04/23 00:56:54;;;;;;;;;;;;;;;-0.30;100.00;100189.50;5052607;28;19932;-80
2021/04/23 00:59:21;;;;;;;;;;;;;;;-0.31;100.00;100185.16;5051742;28;19924;-79
2021/04/23 01:02:09;;;;;;;;;;;;;;;-0.28;100.00;100195.50;5052805;28;20292;-80
2021/04/23 01:04:37;;;;;;;;;;;;;;;-0.37;100.00;100183.72;5088313;28;20023;-80
2021/04/23 01:07:04;;;;;;;;;;;;;;;-0.43;100.00;100182.25;5088377;28;19932;-80
2021/04/23 01:09:31;;;;;;;;;;;;;;;-0.37;100.00;100180.97;5056526;28;19932;-80
2021/04/23 01:11:59;;;;;;;;;;;;;;;-0.31;100.00;100179.66;5055311;28;19925;-80
2021/04/23 01:14:26;;;;;;;;;;;;;;;-0.39;100.00;100184.03;5056730;28;19924;-80
2021/04/23 01:16:52;;;;;;;;;;;;;;;-0.33;100.00;100174.50;5056148;28;20024;-79
2021/04/23 01:19:21;;;;;;;;;;;;;;;-0.57;100.00;100181.63;5088228;28;19933;-80
2021/04/23 01:21:48;;;;;;;;;;;;;;;-0.44;100.00;100177.91;5056367;28;19929;-79
2021/04/23 01:24:15;;;;;;;;;;;;;;;-0.48;100.00;100174.19;5071613;28;19932;-80
2021/04/23 01:26:43;;;;;;;;;;;;;;;-0.45;100.00;100179.03;5088188;28;19932;-80
2021/04/23 01:29:10;;;;;;;;;;;;;;;-0.51;100.00;100181.13;5056122;28;19928;-80
2021/04/23 01:31:38;;;;;;;;;;;;;;;-0.45;100.00;100179.03;5056151;28;20369;-80
2021/04/23 01:34:05;;;;;;;;;;;;;;;-0.49;100.00;100183.56;5055967;28;19931;-78
2021/04/23 01:36:32;;;;;;;;;;;;;;;-0.42;100.00;100181.13;5042200;28;19932;-80
2021/04/23 01:38:58;;;;;;;;;;;;;;;-0.48;100.00;100175.00;5055828;28;19925;-80
2021/04/23 01:41:25;;;;;;;;;;;;;;;-0.57;100.00;100176.13;5054724;28;19925;-80
2021/04/23 01:43:52;;;;;;;;;;;;;;;-0.55;100.00;100180.19;5055975;28;20306;-80
2021/04/23 01:46:19;;;;;;;;;;;;;;;-0.62;100.00;100179.06;5055754;28;20421;-80
2021/04/23 01:48:46;;;;;;;;;;;;;;;-0.68;100.00;100175.63;5055470;28;19925;-80
2021/04/23 01:51:14;;;;;;;;;;;;;;;-0.57;100.00;100181.63;5049180;28;20279;-80
2021/04/23 01:53:41;;;;;;;;;;;;;;;-0.55;100.00;100182.09;5054084;28;20437;-80
2021/04/23 01:56:08;;;;;;;;;;;;;;;-0.62;100.00;100181.78;5055421;28;20387;-80
2021/04/23 01:58:36;;;;;;;;;;;;;;;-0.63;100.00;100177.41;5055453;28;19929;-80
2021/04/23 02:01:04;;;;;;;;;;;;;;;-0.76;100.00;100179.19;5055458;28;19925;-80
2021/04/23 02:03:30;;;;;;;;;;;;;;;-0.93;100.00;100184.69;5055130;28;19932;-80
2021/04/23 02:05:57;;;;;;;;;;;;;;;-0.89;100.00;100191.13;5055381;28;20360;-81
2021/04/23 02:08:26;;;;;;;;;;;;;;;-0.78;100.00;100194.38;5046815;28;20619;-80
2021/04/23 02:10:57;;;;;;;;;;;;;;;-0.79;100.00;100196.28;5055215;28;19986;-80
2021/04/23 02:13:25;;;;;;;;;;;;;;;-0.89;100.00;100195.78;5055272;28;19967;-80
2021/04/23 02:15:52;;;;;;;;;;;;;;;-1.02;100.00;100196.75;5054796;28;20284;-80
2021/04/23 02:18:19;;;;;;;;;;;;;;;-1.04;100.00;100201.75;5037695;28;19967;-80
2021/04/23 02:20:46;;;;;;;;;;;;;;;-1.07;100.00;100200.47;5055274;28;19925;-80
2021/04/23 02:23:13;;;;;;;;;;;;;;;-1.06;100.00;100201.28;5055076;28;19997;-80
2021/04/23 02:25:39;;;;;;;;;;;;;;;-1.04;100.00;100208.03;5054857;28;20103;-80
2021/04/23 02:28:07;;;;;;;;;;;;;;;-0.96;100.00;100207.25;5054991;28;19971;-80
2021/04/23 02:30:36;;;;;;;;;;;;;;;-1.03;100.00;100200.63;5054987;28;19982;-80
2021/04/23 02:33:04;;;;;;;;;;;;;;;-0.93;100.00;100205.81;5054716;28;19943;-80
2021/04/23 02:35:31;;;;;;;;;;;;;;;-1.11;100.00;100204.97;5054838;28;19929;-80
2021/04/23 02:37:57;;;;;;;;;;;;;;;-1.23;100.00;100206.72;5054510;28;19929;-80
2021/04/23 02:40:25;;;;;;;;;;;;;;;-1.22;100.00;100209.13;5054864;28;19924;-80
2021/04/23 02:42:53;;;;;;;;;;;;;;;-1.15;100.00;100203.19;5054569;28;20383;-80
2021/04/23 02:45:21;;;;;;;;;;;;;;;-1.17;100.00;100210.91;5053258;28;20400;-80
2021/04/23 02:47:48;;;;;;;;;;;;;;;-1.21;100.00;100204.47;5053371;28;19925;-80
2021/04/23 02:50:16;;;;;;;;;;;;;;;-1.23;100.00;100202.03;5054610;28;20372;-80
2021/04/23 02:52:43;;;;;;;;;;;;;;;-1.23;100.00;100203.97;5053126;28;19932;-80
2021/04/23 02:55:11;;;;;;;;;;;;;;;-1.25;100.00;100192.50;5054335;28;19929;-80
2021/04/23 02:57:37;;;;;;;;;;;;;;;-1.28;100.00;100204.09;5054315;28;20051;-80
2021/04/23 03:00:10;;;;;;;;;;;;;;;-1.39;100.00;100208.28;5054168;28;20368;-80
2021/04/23 03:02:37;;;;;;;;;;;;;;;-1.34;100.00;100206.19;5054355;28;19940;-80
2021/04/23 03:05:04;;;;;;;;;;;;;;;-1.26;100.00;100205.44;5054331;28;19972;-79
2021/04/23 03:07:31;;;;;;;;;;;;;;;-1.45;100.00;100198.59;5040073;28;20311;-80
2021/04/23 03:09:57;;;;;;;;;;;;;;;-1.59;100.00;100204.16;5086253;28;20441;-80
2021/04/23 03:12:24;;;;;;;;;;;;;;;-1.68;100.00;100202.50;5054022;28;20273;-80
2021/04/23 03:14:51;;;;;;;;;;;;;;;-1.71;100.00;100203.94;5053951;28;19932;-80
2021/04/23 03:17:17;;;;;;;;;;;;;;;-1.69;100.00;100209.91;5068756;28;19925;-80
2021/04/23 03:19:44;;;;;;;;;;;;;;;-1.69;100.00;100209.09;5054114;28;19924;-80
2021/04/23 03:22:11;;;;;;;;;;;;;;;-1.69;100.00;100203.63;5053805;28;19925;-80
2021/04/23 03:24:37;;;;;;;;;;;;;;;-1.69;100.00;100209.09;5053870;28;19951;-80
2021/04/23 03:27:04;;;;;;;;;;;;;;;-1.78;100.00;100217.28;5052154;28;19931;-80
2021/04/23 03:29:31;;;;;;;;;;;;;;;-1.79;100.00;100218.41;5053596;28;19931;-80
2021/04/23 03:31:58;;;;;;;;;;;;;;;-1.68;100.00;100218.97;5053820;28;19935;-80
2021/04/23 03:34:24;;;;;;;;;;;;;;;-1.62;100.00;100210.25;5053516;28;19925;-80
2021/04/23 03:36:51;;;;;;;;;;;;;;;-1.66;100.00;100222.16;5053397;28;19925;-80
2021/04/23 03:39:18;;;;;;;;;;;;;;;-1.69;100.00;100223.63;5053415;28;19968;-80
2021/04/23 03:41:44;;;;;;;;;;;;;;;-1.61;100.00;100217.38;5052488;28;20330;-80
2021/04/23 03:44:11;;;;;;;;;;;;;;;-1.63;100.00;100211.41;5053692;28;19924;-80
2021/04/23 03:46:38;;;;;;;;;;;;;;;-1.56;100.00;100205.47;5085687;28;19932;-80
2021/04/23 03:49:11;;;;;;;;;;;;;;;-1.65;100.00;100210.09;5053654;28;19925;-80
2021/04/23 03:51:38;;;;;;;;;;;;;;;-1.69;100.00;100214.56;5053199;28;19994;-80
2021/04/23 03:54:05;;;;;;;;;;;;;;;-1.65;100.00;100210.09;5053694;28;19966;-80
2021/04/23 03:56:33;;;;;;;;;;;;;;;-1.77;100.00;100207.94;5053107;28;19956;-80
2021/04/23 03:59:00;;;;;;;;;;;;;;;-1.78;100.00;100211.00;5052146;28;19952;-80
2021/04/23 04:01:27;;;;;;;;;;;;;;;-1.73;100.00;100216.34;5053221;28;19925;-80
2021/04/23 04:03:54;;;;;;;;;;;;;;;-1.87;100.00;100209.03;5053296;28;19931;-80
2021/04/23 04:06:23;;;;;;;;;;;;;;;-2.08;100.00;100218.91;5053163;28;19998;-79
2021/04/23 04:08:49;;;;;;;;;;;;;;;-2.24;100.00;100223.13;5051875;28;19936;-79
2021/04/23 04:11:17;;;;;;;;;;;;;;;-2.08;100.00;100213.44;5053354;28;20386;-80
2021/04/23 04:13:43;;;;;;;;;;;;;;;-1.94;100.00;100210.59;5053165;28;19978;-79
2021/04/23 04:16:10;;;;;;;;;;;;;;;-1.97;100.00;100206.53;5052914;28;19925;-79
2021/04/23 04:18:37;;;;;;;;;;;;;;;-2.02;100.00;100211.34;5053002;28;19925;-80
2021/04/23 04:21:04;;;;;;;;;;;;;;;-2.18;100.00;100208.19;5053071;28;20047;-79
2021/04/23 04:23:31;;;;;;;;;;;;;;;-2.14;100.00;100208.38;5053169;28;19925;-79
2021/04/23 04:25:59;;;;;;;;;;;;;;;-2.17;100.00;100204.34;5053077;28;19925;-79
2021/04/23 04:28:26;;;;;;;;;;;;;;;-2.05;100.00;100207.31;5051892;28;19978;-79
2021/04/23 04:30:53;;;;;;;;;;;;;;;-2.18;100.00;100204.66;5051808;28;20399;-79
2021/04/23 04:33:26;;;;;;;;;;;;;;;-2.21;100.00;100206.06;5051649;28;19925;-79
2021/04/23 04:35:53;;;;;;;;;;;;;;;-2.26;100.00;100206.19;5053065;28;19925;-79
2021/04/23 04:38:20;;;;;;;;;;;;;;;-2.28;100.00;100213.09;5054477;28;19929;-80
2021/04/23 04:40:48;;;;;;;;;;;;;;;-2.33;100.00;100205.84;5089716;28;19932;-79
2021/04/23 04:43:15;;;;;;;;;;;;;;;-2.28;100.00;100208.44;5055615;28;19924;-79
2021/04/23 04:45:43;;;;;;;;;;;;;;;-2.35;100.00;100199.84;5089301;28;20027;-79
2021/04/23 04:48:09;;;;;;;;;;;;;;;-2.31;100.00;100202.78;5056539;28;20012;-79
2021/04/23 04:50:41;;;;;;;;;;;;;;;-2.21;100.00;100203.34;5056968;28;19924;-79
2021/04/23 04:53:09;;;;;;;;;;;;;;;-2.09;100.00;100200.84;5056771;28;19938;-79
2021/04/23 04:55:37;;;;;;;;;;;;;;;-2.12;100.00;100215.16;5056714;28;20012;-79
2021/04/23 04:58:04;;;;;;;;;;;;;;;-2.11;100.00;100216.78;5055247;28;20055;-79
2021/04/23 05:00:31;;;;;;;;;;;;;;;-2.14;100.00;100220.16;5088789;28;19948;-79
2021/04/23 05:02:59;;;;;;;;;;;;;;;-2.18;100.00;100215.63;5071936;28;19948;-79
2021/04/23 05:05:26;;;;;;;;;;;;;;;-2.14;100.00;100219.34;5056577;28;19932;-80
2021/04/23 05:07:54;;;;;;;;;;;;;;;-2.04;100.00;100216.31;5056621;28;19948;-79
2021/04/23 05:10:21;;;;;;;;;;;;;;;-2.22;100.00;100217.34;5056385;28;19928;-79
2021/04/23 05:12:49;;;;;;;;;;;;;;;-2.09;100.00;100222.75;5056430;28;19932;-79
2021/04/23 05:15:17;;;;;;;;;;;;;;;-1.87;100.00;100211.78;5056183;28;19925;-79
2021/04/23 05:17:44;;;;;;;;;;;;;;;-1.69;100.00;100220.88;5054834;28;19925;-79
2021/04/23 05:20:11;;;;;;;;;;;;;;;-1.42;100.00;100220.66;5056466;28;20000;-79
2021/04/23 05:22:39;;;;;;;;;;;;;;;-1.19;100.00;100224.94;5055196;28;20343;-80
2021/04/23 05:25:07;;;;;;;;;;;;;;;-1.03;100.00;100231.59;5056244;28;20385;-79
2021/04/23 05:27:34;;;;;;;;;;;;;;;-0.62;100.00;100231.22;5055956;28;20395;-80
2021/04/23 05:30:02;;;;;;;;;;;;;;;-0.17;100.00;100237.97;5056169;28;19932;-79
2021/04/23 05:32:29;;;;;;;;;;;;;;;0.48;100.00;100235.75;5056067;28;19925;-79
2021/04/23 05:34:55;;;;;;;;;;;;;;;0.86;100.00;100228.31;5056162;28;19940;-79
2021/04/23 05:37:22;;;;;;;;;;;;;;;0.90;100.00;100232.00;5056067;28;19932;-79
2021/04/23 05:39:49;;;;;;;;;;;;;;;1.19;100.00;100223.75;5055980;28;19925;-79
2021/04/23 05:42:15;;;;;;;;;;;;;;;1.43;100.00;100229.41;5055650;28;20431;-79
2021/04/23 05:44:43;;;;;;;;;;;;;;;1.86;100.00;100227.09;5055804;28;20058;-80
2021/04/23 05:47:10;;;;;;;;;;;;;;;2.37;100.00;100224.97;5055339;28;20027;-78
2021/04/23 05:49:37;;;;;;;;;;;;;;;2.80;100.00;100222.50;5054789;28;19925;-79
2021/04/23 05:52:05;;;;;;;;;;;;;;;2.49;100.00;100225.81;5065806;28;19925;-79
2021/04/23 05:54:32;;;;;;;;;;;;;;;2.44;100.00;100217.72;5049845;28;19925;-80
2021/04/23 05:56:59;;;;;;;;;;;;;;;2.51;100.00;100220.75;5055458;28;19925;-80
2021/04/23 05:59:26;;;;;;;;;;;;;;;2.79;100.00;100218.94;5055769;28;20009;-80
2021/04/23 06:01:53;;;;;;;;;;;;;;;3.24;100.00;100216.06;5044860;28;19970;-82
2021/04/23 06:04:20;;;;;;;;;;;;;;;3.11;100.00;100217.19;5052453;28;19939;-79
2021/04/23 06:06:46;;;;;;;;;;;;;;;3.06;100.00;100215.47;5074104;28;19933;-79
2021/04/23 06:09:13;;;;;;;;;;;;;;;2.84;100.00;100212.38;5049423;28;19974;-79
2021/04/23 06:11:40;;;;;;;;;;;;;;;2.83;100.00;100211.56;5051464;28;19928;-79
2021/04/23 06:14:07;;;;;;;;;;;;;;;2.75;100.00;100217.19;5050943;28;20392;-79
2021/04/23 06:16:34;;;;;;;;;;;;;;;2.96;100.00;100226.19;5049685;28;19931;-79
2021/04/23 06:19:00;;;;;;;;;;;;;;;3.08;100.00;100234.47;5051488;28;19986;-79
2021/04/23 06:21:27;;;;;;;;;;;;;;;3.21;100.00;100236.88;5051281;28;19932;-79
2021/04/23 06:23:54;;;;;;;;;;;;;;;3.43;100.00;100238.34;5050867;28;19936;-79
2021/04/23 06:26:21;;;;;;;;;;;;;;;3.79;100.00;100235.50;5049917;28;19936;-78
2021/04/23 06:28:47;;;;;;;;;;;;;;;3.97;100.00;100228.50;5043642;28;19925;-76
2021/04/23 06:31:15;;;;;;;;;;;;;;;4.04;100.00;100217.66;5051509;28;19979;-76
2021/04/23 06:33:47;;;;;;;;;;;;;;;4.68;100.00;100220.19;5051524;28;19928;-76
2021/04/23 06:36:14;;;;;;;;;;;;;;;5.38;100.00;100233.78;5054069;28;20021;-76
2021/04/23 06:38:41;;;;;;;;;;;;;;;6.36;100.00;100217.66;5054837;28;19925;-76
2021/04/23 06:41:08;;;;;;;;;;;;;;;7.44;100.00;100218.69;5054977;28;19968;-76
2021/04/23 06:43:35;;;;;;;;;;;;;;;7.57;100.00;100217.31;5054637;28;20387;-77
2021/04/23 06:46:04;;;;;;;;;;;;;;;8.40;100.00;100222.38;5045253;28;20020;-76
2021/04/23 06:48:48;;;;;;;;;;;;;;;9.46;100.00;100221.31;5046144;28;20268;-76
2021/04/23 06:51:15;;;;;;;;;;;;;;;10.40;100.00;100231.38;5050221;28;20614;-76
2021/04/23 06:53:42;;;;;;;;;;;;;;;10.90;100.00;100219.13;5048533;28;20015;-75
2021/04/23 06:56:09;;;;;;;;;;;;;;;11.29;100.00;100213.50;5050485;28;19931;-74
2021/04/23 06:58:35;;;;;;;;;;;;;;;11.80;100.00;100206.25;5049662;28;19936;-75
2021/04/23 07:01:03;;;;;;;;;;;;;;;12.16;100.00;100196.50;5049403;28;19932;-74
2021/04/23 07:03:30;;;;;;;;;;;;;;;12.44;100.00;100204.78;5050447;28;20007;-74
2021/04/23 07:05:59;;;;;;;;;;;;;;;12.66;100.00;100199.88;5050180;28;19929;-74
2021/04/23 07:08:25;;;;;;;;;;;;;;;13.04;100.00;100201.59;5049853;28;19936;-74
2021/04/23 07:10:53;;;;;;;;;;;;;;;13.30;100.00;100203.00;5082571;28;19931;-74
2021/04/23 07:13:19;;;;;;;;;;;;;;;13.32;100.00;100203.38;5048234;28;19952;-75
2021/04/23 07:15:46;;;;;;;;;;;;;;;13.74;100.00;100200.13;5049667;28;20424;-74
2021/04/23 07:18:13;;;;;;;;;;;;;;;13.86;100.00;100197.59;5049163;28;19931;-74
2021/04/23 07:20:41;;;;;;;;;;;;;;;13.75;100.00;100201.75;5049682;28;19929;-74
2021/04/23 07:23:08;;;;;;;;;;;;;;;14.29;100.00;100203.53;5050923;28;19928;-81
2021/04/23 07:25:35;;;;;;;;;;;;;;;14.49;100.00;100202.44;5085292;28;20384;-76
2021/04/23 07:28:02;;;;;;;;;;;;;;;14.66;100.00;100211.84;5046650;28;20430;-76
2021/04/23 07:30:32;;;;;;;;;;;;;;;14.32;100.00;100202.69;5078695;28;20031;-76
2021/04/23 07:32:59;;;;;;;;;;;;;;;13.29;100.00;100199.41;5046449;28;19925;-76
2021/04/23 07:35:26;;;;;;;;;;;;;;;14.08;100.00;100207.38;5073373;28;19960;-76
2021/04/23 07:37:54;;;;;;;;;;;;;;;13.62;100.00;100197.84;5046207;28;20027;-76
2021/04/23 07:40:21;;;;;;;;;;;;;;;14.03;100.00;100207.84;5042949;28;19932;-76
2021/04/23 07:42:48;;;;;;;;;;;;;;;14.12;100.00;100199.69;5070674;28;19976;-76
2021/04/23 07:45:15;;;;;;;;;;;;;;;14.67;100.00;100207.03;5036223;28;19929;-76
2021/04/23 07:47:45;;;;;;;;;;;;;;;14.66;100.00;100211.84;5048869;28;19925;-76
2021/04/23 07:50:13;;;;;;;;;;;;;;;14.57;100.00;100203.13;5047664;28;19936;-75
2021/04/23 07:52:39;;;;;;;;;;;;;;;14.22;100.00;100198.75;5043141;28;20383;-75
2021/04/23 07:55:07;;;;;;;;;;;;;;;13.98;100.00;100210.34;5082050;28;19925;-77
2021/04/23 07:57:35;;;;;;;;;;;;;;;14.68;100.00;100209.41;5049105;28;19928;-78
2021/04/23 08:00:16;;;;;;;;;;;;;;;14.76;100.00;100207.28;5049483;28;19967;-78
2021/04/23 08:02:42;;;;;;;;;;;;;;;14.42;100.00;100210.19;5048966;28;19925;-78
2021/04/23 08:05:10;;;;;;;;;;;;;;;14.83;100.00;100199.53;5049217;28;20262;-78
2021/04/23 08:07:57;;;;;;;;;;;;;;;14.59;100.00;100206.34;5042277;28;20067;-77
2021/04/23 08:10:24;;;;;;;;;;;;;;;15.24;100.00;100202.91;5080519;28;19929;-78
2021/04/23 08:12:52;;;;;;;;;;;;;;;15.82;100.00;100207.13;5080730;28;20292;-78
2021/04/23 08:15:19;;;;;;;;;;;;;;;14.96;100.00;100211.03;5037322;28;19925;-77
2021/04/23 08:17:47;;;;;;;;;;;;;;;16.04;100.00;100200.63;5047627;28;19932;-77
2021/04/23 08:20:13;;;;;;;;;;;;;;;16.43;100.00;100196.22;5051019;28;19979;-75
2021/04/23 08:22:40;;;;;;;;;;;;;;;16.73;100.00;100195.97;5050502;28;20414;-77
2021/04/23 08:25:08;;;;;;;;;;;;;;;16.98;100.00;100179.25;5051742;28;19987;-77
2021/04/23 08:27:35;;;;;;;;;;;;;;;17.32;100.00;100180.41;5049498;28;19925;-78
2021/04/23 08:30:03;;;;;;;;;;;;;;;16.72;100.00;100174.63;5053034;28;19932;-77
2021/04/23 08:32:32;;;;;;;;;;;;;;;16.49;100.00;100174.75;5052669;28;19925;-77
2021/04/23 08:34:59;;;;;;;;;;;;;;;15.46;100.00;100180.84;5084653;28;19925;-77
2021/04/23 08:37:26;;;;;;;;;;;;;;;15.80;100.00;100173.75;5052674;28;19925;-77
2021/04/23 08:39:52;;;;;;;;;;;;;;;15.54;100.00;100169.00;5052446;28;19931;-77
2021/04/23 08:42:20;;;;;;;;;;;;;;;15.88;100.00;100180.84;5052810;28;19925;-77
2021/04/23 08:44:47;;;;;;;;;;;;;;;15.76;100.00;100167.38;5052760;28;20339;-78
2021/04/23 08:47:16;;;;;;;;;;;;;;;14.74;100.00;100162.72;5044787;28;19925;-79
2021/04/23 08:49:44;;;;;;;;;;;;;;;14.76;100.00;100165.09;5048942;28;20261;-79
2021/04/23 08:52:11;;;;;;;;;;;;;;;14.98;100.00;100177.63;5047087;28;19932;-79
2021/04/23 08:54:39;;;;;;;;;;;;;;;15.26;100.00;100177.94;5042037;28;19933;-79
2021/04/23 08:57:08;;;;;;;;;;;;;;;14.22;100.00;100170.66;5045389;28;19932;-79
2021/04/23 08:59:36;;;;;;;;;;;;;;;14.34;100.00;100170.13;5048635;28;20025;-80
2021/04/23 09:02:02;;;;;;;;;;;;;;;15.19;100.00;100166.00;5059455;28;20391;-79
2021/04/23 09:04:29;;;;;;;;;;;;;;;15.65;100.00;100161.16;5047912;28;20421;-79
2021/04/23 09:07:01;;;;;;;;;;;;;;;14.29;100.00;100170.59;5047933;28;19939;-79
2021/04/23 09:09:34;;;;;;;;;;;;;;;13.89;100.00;100167.84;5048287;28;19932;-79
2021/04/23 09:12:16;;;;;;;;;;;;;;;13.50;100.00;100164.69;5048170;28;19951;-78
2021/04/23 09:14:42;;;;;;;;;;;;;;;13.15;100.00;100163.03;5048258;28;19936;-85
2021/04/23 09:17:09;;;;;;;;;;;;;;;13.03;100.00;100165.53;5046847;28;20017;-77
2021/04/23 09:19:36;;;;;;;;;;;;;;;12.80;100.00;100162.50;5048953;28;19936;-77
2021/04/23 09:22:19;;;;;;;;;;;;;;;13.37;100.00;100158.03;5048731;28;20253;-78
2021/04/23 09:24:47;;;;;;;;;;;;;;;13.73;100.00;100170.47;5049642;28;19956;-77
2021/04/23 09:27:18;;;;;;;;;;;;;;;14.06;100.00;100161.22;5051749;28;19978;-78
2021/04/23 09:29:51;;;;;;;;;;;;;;;13.50;100.00;100153.47;5040423;28;19924;-77
2021/04/23 09:32:21;;;;;;;;;;;;;;;13.67;100.00;100152.47;5053820;28;19932;-77
2021/04/23 09:34:55;;;;;;;;;;;;;;;13.64;100.00;100153.31;5055383;28;19952;-78
2021/04/23 09:37:24;;;;;;;;;;;;;;;13.92;100.00;100164.22;5055955;28;19974;-77
2021/04/23 09:39:52;;;;;;;;;;;;;;;13.72;100.00;100163.25;5055461;28;19929;-77
2021/04/23 09:42:19;;;;;;;;;;;;;;;13.40;100.00;100152.38;5055939;28;19932;-78
2021/04/23 09:44:46;;;;;;;;;;;;;;;13.20;100.00;100144.94;5055808;28;20283;-78
2021/04/23 09:47:15;;;;;;;;;;;;;;;13.21;100.00;100149.38;5055646;28;19932;-77
2021/04/23 09:49:42;;;;;;;;;;;;;;;12.85;100.00;100142.41;5055377;28;20448;-77
2021/04/23 09:52:11;;;;;;;;;;;;;;;12.92;100.00;100156.41;5087166;28;19925;-77
2021/04/23 09:54:38;;;;;;;;;;;;;;;12.78;100.00;100144.06;5054069;28;20345;-78
2021/04/23 09:57:12;;;;;;;;;;;;;;;13.00;100.00;100144.72;5054375;28;20315;-78
2021/04/23 09:59:46;;;;;;;;;;;;;;;13.37;100.00;100144.78;5055407;28;20384;-78
2021/04/23 10:02:13;;;;;;;;;;;;;;;13.60;100.00;100144.16;5054859;28;20410;-77
2021/04/23 10:04:40;;;;;;;;;;;;;;;13.16;100.00;100141.38;5055359;28;19932;-77
2021/04/23 10:07:14;;;;;;;;;;;;;;;13.55;100.00;100153.81;5055280;28;19979;-77
2021/04/23 10:09:53;;;;;;;;;;;;;;;13.73;100.00;100153.63;5087219;28;19935;-78
2021/04/23 10:12:39;;;;;;;;;;;;;;;13.11;100.00;100141.81;5048517;28;19929;-76
2021/04/23 10:15:08;;;;;;;;;;;;;;;12.99;100.00;100153.53;5054733;28;19932;-77
2021/04/23 10:17:35;;;;;;;;;;;;;;;13.01;100.00;100145.53;5054842;28;19929;-78
2021/04/23 10:20:03;;;;;;;;;;;;;;;13.15;100.00;100139.78;5053762;28;19979;-77
2021/04/23 10:22:31;;;;;;;;;;;;;;;13.06;100.00;100145.88;5054662;28;20398;-77
2021/04/23 10:24:58;;;;;;;;;;;;;;;13.31;100.00;100142.84;5053667;28;19931;-77
2021/04/23 10:27:24;;;;;;;;;;;;;;;13.50;100.00;100150.66;5086815;28;20016;-78
2021/04/23 10:29:52;;;;;;;;;;;;;;;13.47;100.00;100141.06;5053653;28;20016;-77
2021/04/23 10:32:20;;;;;;;;;;;;;;;13.76;100.00;100152.78;5054780;28;19924;-76
2021/04/23 10:34:47;;;;;;;;;;;;;;;13.91;100.00;100157.00;5054986;28;20745;-78
2021/04/23 10:37:14;;;;;;;;;;;;;;;13.93;100.00;100152.56;5054418;28;19925;-78
2021/04/23 10:39:42;;;;;;;;;;;;;;;14.03;100.00;100140.41;5054634;28;20545;-76
2021/04/23 10:42:27;;;;;;;;;;;;;;;14.25;100.00;100157.81;5054629;28;19925;-76
2021/04/23 10:45:01;;;;;;;;;;;;;;;14.10;100.00;100150.75;5054409;28;19925;-76
2021/04/23 10:47:35;;;;;;;;;;;;;;;14.36;100.00;100144.38;5054524;28;19976;-76
2021/04/23 10:50:22;;;;;;;;;;;;;;;14.19;100.00;100154.63;5054222;28;19939;-76
2021/04/23 10:52:59;;;;;;;;;;;;;;;13.90;100.00;100147.00;5054610;28;20288;-76
2021/04/23 10:55:38;;;;;;;;;;;;;;;13.66;100.00;100156.50;5041987;28;20475;-76
2021/04/23 10:58:29;;;;;;;;;;;;;;;13.90;100.00;100150.59;5054218;28;19935;-76
2021/04/23 11:00:56;;;;;;;;;;;;;;;13.95;100.00;100152.16;5054097;28;19925;-76
2021/04/23 11:03:24;;;;;;;;;;;;;;;13.66;100.00;100142.47;5040873;28;20292;-75
2021/04/23 11:05:52;;;;;;;;;;;;;;;14.07;100.00;100149.56;5052477;28;19986;-75
2021/04/23 11:08:19;;;;;;;;;;;;;;;14.08;100.00;100144.75;5053698;28;19956;-76
2021/04/23 11:11:15;;;;;;;;;;;;;;;14.22;100.00;100142.53;5054206;28;19925;-76
2021/04/23 11:13:46;;;;;;;;;;;;;;;14.45;100.00;100145.47;5069227;28;19931;-75
2021/04/23 11:16:27;;;;;;;;;;;;;;;14.37;100.00;100148.81;5054009;28;19979;-74
2021/04/23 11:19:13;;;;;;;;;;;;;;;14.58;100.00;100139.25;5053872;28;20382;-74
2021/04/23 11:21:40;;;;;;;;;;;;;;;14.17;100.00;100150.66;5054051;28;19925;-74
2021/04/23 11:24:06;;;;;;;;;;;;;;;14.16;100.00;100149.84;5053787;28;20018;-75
2021/04/23 11:26:52;;;;;;;;;;;;;;;14.19;100.00;100139.81;5052702;28;19929;-75
2021/04/23 11:29:23;;;;;;;;;;;;;;;14.19;100.00;100137.75;5053807;28;20296;-77
2021/04/23 11:32:05;;;;;;;;;;;;;;;14.02;100.00;100136.00;5051301;28;20348;-75
2021/04/23 11:34:39;;;;;;;;;;;;;;;13.67;100.00;100138.44;5053449;28;20372;-77
2021/04/23 11:37:12;;;;;;;;;;;;;;;13.64;100.00;100140.09;5085939;28;20015;-76
2021/04/23 11:39:45;;;;;;;;;;;;;;;13.88;100.00;100129.75;5053520;28;19932;-77
2021/04/23 11:42:14;;;;;;;;;;;;;;;14.00;100.00;100132.81;5053112;28;19924;-78
2021/04/23 11:44:50;;;;;;;;;;;;;;;14.20;100.00;100125.31;5052866;28;19929;-78
2021/04/23 11:47:18;;;;;;;;;;;;;;;14.39;100.00;100126.66;5052723;28;20026;-77
2021/04/23 11:49:45;;;;;;;;;;;;;;;14.40;100.00;100115.00;5052677;28;19943;-78
2021/04/23 11:52:12;;;;;;;;;;;;;;;14.76;100.00;100122.91;5053069;28;19952;-78
2021/04/23 11:54:43;;;;;;;;;;;;;;;14.74;100.00;100123.31;5044634;28;20067;-75
2021/04/23 11:57:12;;;;;;;;;;;;;;;14.14;100.00;100112.16;5051838;28;20387;-75
2021/04/23 11:59:59;;;;;;;;;;;;;;;14.02;100.00;100115.53;5041807;28;20303;-77
2021/04/23 12:02:37;;;;;;;;;;;;;;;14.04;100.00;100113.09;5052729;28;19967;-77
2021/04/23 12:05:04;;;;;;;;;;;;;;;14.41;100.00;100110.19;5053114;28;20372;-78
2021/04/23 12:07:45;;;;;;;;;;;;;;;14.80;100.00;100106.78;5053150;28;20023;-78
2021/04/23 12:10:13;;;;;;;;;;;;;;;14.85;100.00;100107.06;5053247;28;19925;-78
2021/04/23 12:12:41;;;;;;;;;;;;;;;14.86;100.00;100107.88;5054785;28;20020;-77
2021/04/23 12:15:17;;;;;;;;;;;;;;;14.56;100.00;100105.94;5055714;28;19925;-78
2021/04/23 12:17:44;;;;;;;;;;;;;;;14.61;100.00;100102.66;5051612;28;19925;-78
2021/04/23 12:20:15;;;;;;;;;;;;;;;14.75;100.00;100091.16;5052834;28;19928;-79
2021/04/23 12:22:42;;;;;;;;;;;;;;;15.13;100.00;100100.94;5052407;28;19968;-78
2021/04/23 12:25:31;;;;;;;;;;;;;;;14.48;100.00;100093.19;5052025;28;19925;-78
2021/04/23 12:28:16;;;;;;;;;;;;;;;14.73;100.00;100090.78;5076374;28;19925;-78
2021/04/23 12:30:44;;;;;;;;;;;;;;;14.65;100.00;100092.13;5047858;28;19934;-78
2021/04/23 12:33:10;;;;;;;;;;;;;;;15.01;100.00;100093.13;5049417;28;19932;-77
2021/04/23 12:35:38;;;;;;;;;;;;;;;15.19;100.00;100093.59;5045888;28;19951;-78
2021/04/23 12:38:07;;;;;;;;;;;;;;;15.45;100.00;100089.91;5054905;28;19932;-78